createdAt,value
2018-06-02T00:00:42.187Z,0
2018-06-02T00:01:41.853Z,0
2018-06-02T00:02:42.200Z,0
2018-06-02T00:03:42.305Z,0
2018-06-02T00:04:41.818Z,0
2018-06-02T00:05:42.650Z,0
2018-06-02T00:06:42.599Z,0
2018-06-02T00:07:42.578Z,0
2018-06-02T00:08:42.572Z,0
2018-06-02T00:09:42.109Z,0
2018-06-02T00:10:42.826Z,0
2018-06-02T00:11:42.492Z,0
2018-06-02T00:12:42.578Z,0
2018-06-02T00:13:42.767Z,0
2018-06-02T00:14:42.502Z,0
2018-06-02T00:15:42.575Z,0
2018-06-02T00:16:43.092Z,0
2018-06-02T00:17:42.335Z,0
2018-06-02T00:18:43.184Z,0
2018-06-02T00:19:43.337Z,0
2018-06-02T00:20:43.760Z,0
2018-06-02T00:21:44.457Z,0
2018-06-02T00:22:44.853Z,0
2018-06-02T00:23:45.279Z,0
2018-06-02T00:24:45.448Z,0
2018-06-02T00:25:45.565Z,0
2018-06-02T00:26:45.414Z,0
2018-06-02T00:27:45.980Z,0
2018-06-02T00:28:45.892Z,0
2018-06-02T00:29:46.215Z,0
2018-06-02T00:30:46.363Z,0
2018-06-02T00:31:46.787Z,0
2018-06-02T00:32:46.594Z,0
2018-06-02T00:33:46.553Z,0
2018-06-02T00:34:46.693Z,0
2018-06-02T00:35:47.384Z,0
2018-06-02T00:36:46.859Z,0
2018-06-02T00:37:47.424Z,0
2018-06-02T00:38:47.482Z,0
2018-06-02T00:39:47.515Z,0
2018-06-02T00:40:46.925Z,0
2018-06-02T00:41:47.939Z,0
2018-06-02T00:42:47.728Z,0
2018-06-02T00:43:47.795Z,0
2018-06-02T00:44:48.561Z,0
2018-06-02T00:45:48.564Z,0
2018-06-02T00:46:48.114Z,0
2018-06-02T00:47:48.342Z,0
2018-06-02T00:48:48.596Z,0
2018-06-02T00:49:49.349Z,0
2018-06-02T00:50:49.310Z,0
2018-06-02T00:51:49.178Z,0
2018-06-02T00:52:49.157Z,0
2018-06-02T00:53:49.090Z,0
2018-06-02T00:54:49.368Z,0
2018-06-02T00:55:49.306Z,0
2018-06-02T00:56:49.859Z,0
2018-06-02T00:57:49.772Z,0
2018-06-02T00:58:50.269Z,0
2018-06-02T00:59:49.731Z,0
2018-06-02T01:00:50.025Z,0
2018-06-02T01:01:50.472Z,0
2018-06-02T01:02:50.707Z,0
2018-06-02T01:03:51.438Z,0
2018-06-02T01:04:50.820Z,0
2018-06-02T01:05:52.068Z,0
2018-06-02T01:06:52.273Z,0
2018-06-02T01:07:52.294Z,0
2018-06-02T01:08:52.531Z,0
2018-06-02T01:09:52.360Z,0
2018-06-02T01:10:51.926Z,0
2018-06-02T01:11:51.824Z,0
2018-06-02T01:12:52.448Z,0
2018-06-02T01:13:51.850Z,0
2018-06-02T01:14:52.077Z,0
2018-06-02T01:15:51.351Z,0
2018-06-02T01:16:51.402Z,0
2018-06-02T01:17:51.002Z,0
2018-06-02T01:18:53.149Z,0
2018-06-02T01:19:52.566Z,0
2018-06-02T01:20:51.830Z,0
2018-06-02T01:21:51.894Z,0
2018-06-02T01:22:51.956Z,0
2018-06-02T01:23:51.548Z,0
2018-06-02T01:24:51.655Z,0
2018-06-02T01:25:51.472Z,0
2018-06-02T01:26:52.344Z,0
2018-06-02T01:27:52.222Z,0
2018-06-02T01:28:52.398Z,0
2018-06-02T01:29:52.189Z,0
2018-06-02T01:30:52.733Z,0
2018-06-02T01:31:52.797Z,0
2018-06-02T01:32:53.556Z,0
2018-06-02T01:33:54.100Z,0
2018-06-02T01:34:52.809Z,0
2018-06-02T01:35:53.859Z,0
2018-06-02T01:36:53.857Z,0
2018-06-02T01:37:52.424Z,0
2018-06-02T01:38:53.591Z,0
2018-06-02T01:39:52.979Z,0
2018-06-02T01:40:53.654Z,0
2018-06-02T01:41:53.641Z,0
2018-06-02T01:42:53.712Z,0
2018-06-02T01:43:53.754Z,0
2018-06-02T01:44:53.848Z,0
2018-06-02T01:45:55.105Z,0
2018-06-02T01:46:54.171Z,0
2018-06-02T01:47:54.728Z,0
2018-06-02T01:48:55.044Z,0
2018-06-02T01:49:54.934Z,0
2018-06-02T01:50:54.511Z,0
2018-06-02T01:51:55.502Z,0
2018-06-02T01:52:54.741Z,0
2018-06-02T01:53:54.271Z,0
2018-06-02T01:54:54.227Z,0
2018-06-02T01:55:54.378Z,0
2018-06-02T01:56:54.720Z,0
2018-06-02T01:57:54.490Z,0
2018-06-02T01:58:54.451Z,0
2018-06-02T01:59:55.038Z,0
2018-06-02T02:00:54.318Z,0
2018-06-02T02:01:54.284Z,0
2018-06-02T02:02:54.531Z,0
2018-06-02T02:03:54.557Z,0
2018-06-02T02:04:54.855Z,0
2018-06-02T02:05:54.828Z,0
2018-06-02T02:06:55.168Z,0
2018-06-02T02:07:55.175Z,0
2018-06-02T02:08:55.604Z,0
2018-06-02T02:09:55.626Z,0
2018-06-02T02:10:55.472Z,0
2018-06-02T02:11:55.684Z,0
2018-06-02T02:12:55.484Z,0
2018-06-02T02:13:55.711Z,0
2018-06-02T02:14:55.658Z,0
2018-06-02T02:15:56.063Z,0
2018-06-02T02:16:56.726Z,0
2018-06-02T02:17:56.500Z,0
2018-06-02T02:18:56.905Z,4
2018-06-02T02:19:56.934Z,4
2018-06-02T02:20:56.805Z,0
2018-06-02T02:21:57.464Z,0
2018-06-02T02:22:57.132Z,0
2018-06-02T02:23:57.099Z,4
2018-06-02T02:24:57.704Z,4
2018-06-02T02:25:57.979Z,4
2018-06-02T02:26:58.019Z,4
2018-06-02T02:27:58.091Z,4
2018-06-02T02:28:58.334Z,4
2018-06-02T02:29:57.587Z,8
2018-06-02T02:30:58.003Z,4
2018-06-02T02:31:58.045Z,4
2018-06-02T02:32:57.959Z,8
2018-06-02T02:33:58.678Z,8
2018-06-02T02:34:58.318Z,8
2018-06-02T02:35:59.004Z,8
2018-06-02T02:36:58.318Z,12
2018-06-02T02:37:59.013Z,8
2018-06-02T02:38:59.709Z,8
2018-06-02T02:39:59.426Z,12
2018-06-02T02:40:59.043Z,16
2018-06-02T02:42:00.367Z,12
2018-06-02T02:42:59.709Z,16
2018-06-02T02:43:59.730Z,16
2018-06-02T02:44:59.658Z,20
2018-06-02T02:45:59.930Z,24
2018-06-02T02:47:00.145Z,24
2018-06-02T02:48:00.344Z,24
2018-06-02T02:48:59.958Z,28
2018-06-02T02:50:00.775Z,28
2018-06-02T02:51:00.394Z,36
2018-06-02T02:52:00.694Z,36
2018-06-02T02:53:00.481Z,36
2018-06-02T02:54:00.362Z,40
2018-06-02T02:55:00.812Z,44
2018-06-02T02:56:01.580Z,48
2018-06-02T02:57:00.068Z,52
2018-06-02T02:58:00.958Z,56
2018-06-02T02:59:00.180Z,56
2018-06-02T03:00:14.478Z,60
2018-06-02T03:01:01.792Z,60
2018-06-02T03:02:01.650Z,64
2018-06-02T03:03:01.318Z,64
2018-06-02T03:04:01.069Z,64
2018-06-02T03:05:01.371Z,68
2018-06-02T03:06:01.183Z,72
2018-06-02T03:07:01.703Z,72
2018-06-02T03:08:01.481Z,76
2018-06-02T03:09:02.066Z,80
2018-06-02T03:10:01.830Z,84
2018-06-02T03:11:02.240Z,84
2018-06-02T03:12:02.706Z,88
2018-06-02T03:13:02.659Z,92
2018-06-02T03:14:02.600Z,96
2018-06-02T03:15:02.793Z,100
2018-06-02T03:16:02.807Z,104
2018-06-02T03:17:03.054Z,108
2018-06-02T03:18:03.083Z,112
2018-06-02T03:19:03.107Z,116
2018-06-02T03:20:03.744Z,124
2018-06-02T03:21:02.729Z,124
2018-06-02T03:22:04.075Z,132
2018-06-02T03:23:04.414Z,136
2018-06-02T03:24:03.181Z,144
2018-06-02T03:25:03.199Z,156
2018-06-02T03:26:03.164Z,160
2018-06-02T03:27:03.773Z,160
2018-06-02T03:28:04.099Z,164
2018-06-02T03:29:04.139Z,176
2018-06-02T03:30:04.806Z,180
2018-06-02T03:31:04.410Z,188
2018-06-02T03:32:05.249Z,196
2018-06-02T03:33:04.951Z,208
2018-06-02T03:34:05.511Z,212
2018-06-02T03:35:05.631Z,220
2018-06-02T03:36:05.581Z,224
2018-06-02T03:37:05.605Z,236
2018-06-02T03:38:05.053Z,252
2018-06-02T03:39:05.178Z,276
2018-06-02T03:40:05.416Z,296
2018-06-02T03:41:06.042Z,320
2018-06-02T03:42:06.444Z,344
2018-06-02T03:43:06.097Z,356
2018-06-02T03:44:05.609Z,364
2018-06-02T03:45:06.154Z,376
2018-06-02T03:46:06.470Z,388
2018-06-02T03:47:06.448Z,404
2018-06-02T03:48:05.921Z,416
2018-06-02T03:49:06.273Z,432
2018-06-02T03:50:06.583Z,448
2018-06-02T03:51:06.787Z,452
2018-06-02T03:52:07.017Z,460
2018-06-02T03:53:07.411Z,468
2018-06-02T03:54:07.605Z,484
2018-06-02T03:55:07.417Z,508
2018-06-02T03:56:07.429Z,524
2018-06-02T03:57:07.905Z,532
2018-06-02T03:58:07.657Z,536
2018-06-02T03:59:08.135Z,544
2018-06-02T04:00:14.448Z,544
2018-06-02T04:01:07.981Z,536
2018-06-02T04:02:08.170Z,544
2018-06-02T04:03:07.991Z,556
2018-06-02T04:04:07.926Z,576
2018-06-02T04:05:08.660Z,584
2018-06-02T04:06:08.364Z,588
2018-06-02T04:07:08.752Z,592
2018-06-02T04:08:08.373Z,592
2018-06-02T04:09:08.197Z,588
2018-06-02T04:10:09.086Z,588
2018-06-02T04:11:08.900Z,596
2018-06-02T04:12:09.044Z,604
2018-06-02T04:13:09.384Z,616
2018-06-02T04:14:09.187Z,632
2018-06-02T04:15:09.610Z,644
2018-06-02T04:16:09.747Z,656
2018-06-02T04:17:10.350Z,664
2018-06-02T04:18:10.329Z,672
2018-06-02T04:19:09.862Z,688
2018-06-02T04:20:10.135Z,700
2018-06-02T04:21:10.806Z,716
2018-06-02T04:22:10.948Z,728
2018-06-02T04:23:11.216Z,748
2018-06-02T04:24:11.663Z,772
2018-06-02T04:25:12.007Z,796
2018-06-02T04:26:11.793Z,816
2018-06-02T04:27:11.972Z,840
2018-06-02T04:28:11.820Z,844
2018-06-02T04:29:12.092Z,848
2018-06-02T04:30:12.816Z,852
2018-06-02T04:31:11.932Z,852
2018-06-02T04:32:12.316Z,856
2018-06-02T04:33:12.390Z,872
2018-06-02T04:34:12.117Z,880
2018-06-02T04:35:12.313Z,892
2018-06-02T04:36:12.733Z,896
2018-06-02T04:37:13.083Z,900
2018-06-02T04:38:12.791Z,900
2018-06-02T04:39:12.844Z,908
2018-06-02T04:40:13.098Z,916
2018-06-02T04:41:13.588Z,928
2018-06-02T04:42:13.820Z,936
2018-06-02T04:43:13.709Z,944
2018-06-02T04:44:14.126Z,948
2018-06-02T04:45:14.044Z,944
2018-06-02T04:46:14.167Z,944
2018-06-02T04:47:14.589Z,936
2018-06-02T04:48:14.965Z,928
2018-06-02T04:49:15.450Z,920
2018-06-02T04:50:15.431Z,916
2018-06-02T04:51:15.501Z,916
2018-06-02T04:52:15.439Z,916
2018-06-02T04:53:15.212Z,928
2018-06-02T04:54:15.609Z,944
2018-06-02T04:55:15.147Z,956
2018-06-02T04:56:15.444Z,964
2018-06-02T04:57:16.111Z,972
2018-06-02T04:58:17.710Z,976
2018-06-02T04:59:16.703Z,988
2018-06-02T05:00:17.795Z,1012
2018-06-02T05:01:17.296Z,1044
2018-06-02T05:02:17.744Z,1072
2018-06-02T05:03:17.260Z,1092
2018-06-02T05:04:17.949Z,1120
2018-06-02T05:05:17.718Z,1156
2018-06-02T05:06:17.748Z,1196
2018-06-02T05:07:18.127Z,1224
2018-06-02T05:08:18.165Z,1248
2018-06-02T05:09:17.920Z,1276
2018-06-02T05:10:18.134Z,1304
2018-06-02T05:11:18.112Z,1332
2018-06-02T05:12:18.096Z,1364
2018-06-02T05:13:18.205Z,1404
2018-06-02T05:14:18.923Z,1444
2018-06-02T05:15:18.475Z,1472
2018-06-02T05:16:18.973Z,1488
2018-06-02T05:17:19.001Z,1512
2018-06-02T05:18:19.060Z,1560
2018-06-02T05:19:18.561Z,1612
2018-06-02T05:20:18.961Z,1664
2018-06-02T05:21:19.653Z,1704
2018-06-02T05:22:19.430Z,1736
2018-06-02T05:23:19.861Z,1764
2018-06-02T05:24:20.395Z,1788
2018-06-02T05:25:20.374Z,1776
2018-06-02T05:26:20.306Z,1780
2018-06-02T05:27:20.712Z,1772
2018-06-02T05:28:20.881Z,1748
2018-06-02T05:29:21.291Z,1760
2018-06-02T05:30:20.872Z,1768
2018-06-02T05:31:21.260Z,1788
2018-06-02T05:32:21.768Z,1808
2018-06-02T05:33:21.987Z,1812
2018-06-02T05:34:22.081Z,1788
2018-06-02T05:35:21.860Z,1760
2018-06-02T05:36:21.820Z,1744
2018-06-02T05:37:22.236Z,1760
2018-06-02T05:38:22.116Z,1768
2018-06-02T05:39:22.236Z,1760
2018-06-02T05:40:23.148Z,1796
2018-06-02T05:41:22.809Z,1916
2018-06-02T05:42:22.767Z,2080
2018-06-02T05:43:23.433Z,2260
2018-06-02T05:44:23.294Z,2432
2018-06-02T05:45:23.591Z,2624
2018-06-02T05:46:24.258Z,2864
2018-06-02T05:47:24.411Z,3104
2018-06-02T05:48:24.128Z,3284
2018-06-02T05:49:24.523Z,3428
2018-06-02T05:50:24.693Z,3472
2018-06-02T05:51:24.961Z,3540
2018-06-02T05:52:25.421Z,3260
2018-06-02T05:53:25.410Z,3220
2018-06-02T05:54:25.453Z,3196
2018-06-02T05:55:25.367Z,3392
2018-06-02T05:56:26.035Z,3724
2018-06-02T05:57:25.793Z,3872
2018-06-02T05:58:26.015Z,3776
2018-06-02T05:59:26.004Z,2960
2018-06-02T06:00:25.947Z,2784
2018-06-02T06:01:25.994Z,2692
2018-06-02T06:02:26.003Z,2664
2018-06-02T06:03:26.102Z,2660
2018-06-02T06:04:26.379Z,2648
2018-06-02T06:05:26.472Z,2612
2018-06-02T06:06:26.429Z,2604
2018-06-02T06:07:26.620Z,2612
2018-06-02T06:08:27.115Z,2600
2018-06-02T06:09:26.586Z,2564
2018-06-02T06:10:26.933Z,2540
2018-06-02T06:11:26.666Z,2512
2018-06-02T06:12:27.020Z,2476
2018-06-02T06:13:27.219Z,2444
2018-06-02T06:14:27.303Z,2376
2018-06-02T06:15:27.238Z,2304
2018-06-02T06:16:27.696Z,2252
2018-06-02T06:17:28.142Z,2180
2018-06-02T06:18:28.862Z,2108
2018-06-02T06:19:28.722Z,2032
2018-06-02T06:20:28.680Z,1968
2018-06-02T06:21:28.986Z,1896
2018-06-02T06:22:29.457Z,1856
2018-06-02T06:23:29.630Z,1816
2018-06-02T06:24:29.622Z,1868
2018-06-02T06:25:29.700Z,1832
2018-06-02T06:26:29.352Z,1828
2018-06-02T06:27:29.538Z,1832
2018-06-02T06:28:30.272Z,1860
2018-06-02T06:29:29.766Z,1880
2018-06-02T06:30:30.069Z,1920
2018-06-02T06:31:29.569Z,1960
2018-06-02T06:32:30.187Z,2008
2018-06-02T06:33:30.229Z,2004
2018-06-02T06:34:30.470Z,2072
2018-06-02T06:35:30.518Z,2100
2018-06-02T06:36:30.550Z,2092
2018-06-02T06:37:30.340Z,2148
2018-06-02T06:38:30.810Z,2184
2018-06-02T06:39:30.715Z,2232
2018-06-02T06:40:30.875Z,2248
2018-06-02T06:41:30.727Z,2264
2018-06-02T06:42:30.725Z,2276
2018-06-02T06:43:31.472Z,2284
2018-06-02T06:44:31.833Z,2292
2018-06-02T06:45:30.740Z,2308
2018-06-02T06:46:31.363Z,2312
2018-06-02T06:47:31.331Z,2344
2018-06-02T06:48:31.775Z,2368
2018-06-02T06:49:32.252Z,2416
2018-06-02T06:50:32.297Z,2480
2018-06-02T06:51:32.324Z,2548
2018-06-02T06:52:31.866Z,2636
2018-06-02T06:53:31.871Z,2700
2018-06-02T06:54:32.702Z,2764
2018-06-02T06:55:32.377Z,2800
2018-06-02T06:56:32.682Z,2856
2018-06-02T06:57:32.452Z,2932
2018-06-02T06:58:32.956Z,3012
2018-06-02T06:59:32.752Z,3100
2018-06-02T07:00:32.446Z,3172
2018-06-02T07:01:32.586Z,3228
2018-06-02T07:02:32.699Z,3248
2018-06-02T07:03:33.424Z,3248
2018-06-02T07:04:33.590Z,3292
2018-06-02T07:05:33.656Z,3360
2018-06-02T07:06:33.392Z,3412
2018-06-02T07:07:33.551Z,3480
2018-06-02T07:08:33.938Z,3548
2018-06-02T07:09:33.749Z,3592
2018-06-02T07:10:34.107Z,3588
2018-06-02T07:11:34.274Z,3620
2018-06-02T07:12:34.117Z,3684
2018-06-02T07:13:34.399Z,3724
2018-06-02T07:14:33.881Z,3768
2018-06-02T07:15:33.819Z,3852
2018-06-02T07:16:34.279Z,3984
2018-06-02T07:17:34.947Z,4136
2018-06-02T07:18:34.482Z,4260
2018-06-02T07:19:35.475Z,4432
2018-06-02T07:20:35.036Z,4608
2018-06-02T07:21:34.950Z,4816
2018-06-02T07:22:34.898Z,4912
2018-06-02T07:23:35.374Z,4860
2018-06-02T07:24:35.613Z,5044
2018-06-02T07:25:35.658Z,6480
2018-06-02T07:26:36.347Z,7384
2018-06-02T07:27:35.893Z,7156
2018-06-02T07:28:35.844Z,7112
2018-06-02T07:29:35.534Z,6244
2018-06-02T07:30:35.924Z,5972
2018-06-02T07:31:35.424Z,5460
2018-06-02T07:32:36.020Z,5356
2018-06-02T07:33:35.538Z,6280
2018-06-02T07:34:36.173Z,5852
2018-06-02T07:35:36.030Z,5524
2018-06-02T07:36:36.322Z,5472
2018-06-02T07:37:36.316Z,5368
2018-06-02T07:38:36.084Z,5272
2018-06-02T07:39:36.524Z,5336
2018-06-02T07:40:36.639Z,5464
2018-06-02T07:41:37.708Z,5772
2018-06-02T07:42:37.023Z,5804
2018-06-02T07:43:37.543Z,5664
2018-06-02T07:44:37.992Z,5392
2018-06-02T07:45:38.418Z,5256
2018-06-02T07:46:38.879Z,5140
2018-06-02T07:47:38.222Z,5064
2018-06-02T07:48:39.609Z,5196
2018-06-02T07:49:39.483Z,5552
2018-06-02T07:50:39.435Z,6008
2018-06-02T07:51:39.186Z,6300
2018-06-02T07:52:40.721Z,6636
2018-06-02T07:53:39.863Z,6372
2018-06-02T07:54:40.873Z,6360
2018-06-02T07:55:40.991Z,5856
2018-06-02T07:56:40.624Z,7040
2018-06-02T07:57:40.959Z,8724
2018-06-02T07:58:40.631Z,10144
2018-06-02T07:59:40.970Z,7752
2018-06-02T08:00:40.965Z,10732
2018-06-02T08:01:41.731Z,11372
2018-06-02T08:02:41.726Z,9404
2018-06-02T08:03:41.471Z,6196
2018-06-02T08:04:42.248Z,5764
2018-06-02T08:05:41.529Z,5872
2018-06-02T08:06:41.616Z,5580
2018-06-02T08:07:42.345Z,5328
2018-06-02T08:08:43.160Z,6516
2018-06-02T08:09:42.552Z,10744
2018-06-02T08:10:43.278Z,8812
2018-06-02T08:11:44.346Z,10088
2018-06-02T08:12:43.547Z,5032
2018-06-02T08:13:43.621Z,3948
2018-06-02T08:14:43.254Z,3132
2018-06-02T08:15:43.144Z,2956
2018-06-02T08:16:43.946Z,2408
2018-06-02T08:17:43.966Z,3216
2018-06-02T08:18:43.827Z,4540
2018-06-02T08:19:43.760Z,6808
2018-06-02T08:20:44.787Z,12960
2018-06-02T08:21:44.615Z,15648
2018-06-02T08:22:44.452Z,7844
2018-06-02T08:23:44.785Z,5880
2018-06-02T08:24:44.606Z,6612
2018-06-02T08:25:44.569Z,20288
2018-06-02T08:26:45.310Z,23488
2018-06-02T08:27:44.904Z,24192
2018-06-02T08:28:44.898Z,25696
2018-06-02T08:29:45.374Z,22944
2018-06-02T08:30:45.445Z,13504
2018-06-02T08:31:45.872Z,23936
2018-06-02T08:32:45.915Z,24288
2018-06-02T08:33:46.286Z,6040
2018-06-02T08:34:45.639Z,6968
2018-06-02T08:35:46.428Z,8872
2018-06-02T08:36:46.877Z,12740
2018-06-02T08:37:47.233Z,8876
2018-06-02T08:38:47.028Z,6264
2018-06-02T08:39:47.207Z,4568
2018-06-02T08:40:47.762Z,3900
2018-06-02T08:41:49.475Z,5132
2018-06-02T08:42:47.279Z,8676
2018-06-02T08:43:47.691Z,4840
2018-06-02T08:44:47.741Z,5772
2018-06-02T08:45:48.414Z,40512
2018-06-02T08:46:48.469Z,38944
2018-06-02T08:47:48.609Z,40960
2018-06-02T08:48:48.558Z,9532
2018-06-02T08:49:48.689Z,38592
2018-06-02T08:50:48.455Z,44576
2018-06-02T08:51:49.655Z,44960
2018-06-02T08:52:49.804Z,46400
2018-06-02T08:53:50.054Z,49056
2018-06-02T08:54:48.923Z,46944
2018-06-02T08:55:51.018Z,27776
2018-06-02T08:56:51.972Z,50944
2018-06-02T08:57:51.410Z,51776
2018-06-02T08:58:51.050Z,55712
2018-06-02T08:59:51.215Z,53696
2018-06-02T09:00:50.220Z,35328
2018-06-02T09:01:49.931Z,32928
2018-06-02T09:02:50.467Z,32032
2018-06-02T09:03:50.828Z,44160
2018-06-02T09:04:50.581Z,47680
2018-06-02T09:05:50.684Z,39232
2018-06-02T09:06:50.731Z,46592
2018-06-02T09:07:51.341Z,48608
2018-06-02T09:08:51.375Z,51616
2018-06-02T09:09:51.519Z,45696
2018-06-02T09:10:51.943Z,8744
2018-06-02T09:11:52.083Z,7596
2018-06-02T09:12:52.634Z,6836
2018-06-02T09:13:52.703Z,4256
2018-06-02T09:14:53.154Z,2732
2018-06-02T09:15:53.210Z,2124
2018-06-02T09:16:53.347Z,2348
2018-06-02T09:17:54.001Z,2460
2018-06-02T09:18:53.880Z,2548
2018-06-02T09:19:54.160Z,2556
2018-06-02T09:20:54.556Z,2464
2018-06-02T09:21:54.924Z,2536
2018-06-02T09:22:55.149Z,2652
2018-06-02T09:23:54.844Z,2964
2018-06-02T09:24:55.505Z,3500
2018-06-02T09:25:55.332Z,4432
2018-06-02T09:26:55.227Z,28288
2018-06-02T09:27:56.241Z,7604
2018-06-02T09:28:56.122Z,6052
2018-06-02T09:29:55.831Z,6096
2018-06-02T09:30:56.287Z,6824
2018-06-02T09:31:56.378Z,12672
2018-06-02T09:32:56.760Z,26464
2018-06-02T09:33:57.185Z,35904
2018-06-02T09:34:57.438Z,33344
2018-06-02T09:35:57.165Z,37344
2018-06-02T09:36:57.088Z,30816
2018-06-02T09:37:57.270Z,8304
2018-06-02T09:38:57.570Z,25728
2018-06-02T09:39:57.522Z,34080
2018-06-02T09:40:57.547Z,45696
2018-06-02T09:41:57.625Z,38752
2018-06-02T09:42:57.508Z,13060
2018-06-02T09:43:57.652Z,25952
2018-06-02T09:44:57.802Z,32096
2018-06-02T09:45:58.464Z,5204
2018-06-02T09:46:58.549Z,15616
2018-06-02T09:47:58.970Z,10936
2018-06-02T09:48:58.720Z,4872
2018-06-02T09:49:59.812Z,7380
2018-06-02T09:50:59.584Z,29792
2018-06-02T09:51:59.825Z,50784
2018-06-02T09:52:59.571Z,53632
2018-06-02T09:53:59.681Z,53664
2018-06-02T09:54:59.799Z,52448
2018-06-02T09:56:00.366Z,56032
2018-06-02T09:56:59.662Z,56928
2018-06-02T09:58:00.238Z,55552
2018-06-02T09:59:00.072Z,45184
2018-06-02T10:00:00.119Z,30688
2018-06-02T10:01:00.021Z,13832
2018-06-02T10:01:59.772Z,11976
2018-06-02T10:03:00.017Z,11664
2018-06-02T10:04:00.205Z,10516
2018-06-02T10:04:59.880Z,9780
2018-06-02T10:06:00.449Z,9560
2018-06-02T10:07:00.205Z,9212
2018-06-02T10:08:00.942Z,9016
2018-06-02T10:09:00.672Z,8976
2018-06-02T10:10:02.848Z,8644
2018-06-02T10:11:01.514Z,9892
2018-06-02T10:12:01.482Z,9708
2018-06-02T10:13:02.409Z,8732
2018-06-02T10:14:02.632Z,7872
2018-06-02T10:15:02.254Z,8348
2018-06-02T10:16:02.780Z,8448
2018-06-02T10:17:02.562Z,8400
2018-06-02T10:18:02.432Z,8068
2018-06-02T10:19:02.773Z,7736
2018-06-02T10:20:02.426Z,7756
2018-06-02T10:21:02.227Z,7728
2018-06-02T10:22:03.572Z,7792
2018-06-02T10:23:02.523Z,8056
2018-06-02T10:24:03.217Z,7064
2018-06-02T10:25:03.302Z,7720
2018-06-02T10:26:03.679Z,7816
2018-06-02T10:27:03.387Z,7800
2018-06-02T10:28:03.520Z,7800
2018-06-02T10:29:02.959Z,7480
2018-06-02T10:30:04.193Z,7572
2018-06-02T10:31:04.177Z,7860
2018-06-02T10:32:03.747Z,7220
2018-06-02T10:33:04.061Z,7372
2018-06-02T10:34:05.117Z,7176
2018-06-02T10:35:04.183Z,7280
2018-06-02T10:36:04.741Z,7272
2018-06-02T10:37:04.268Z,7004
2018-06-02T10:38:04.194Z,6564
2018-06-02T10:39:04.483Z,6644
2018-06-02T10:40:03.996Z,6952
2018-06-02T10:41:04.825Z,6992
2018-06-02T10:42:04.685Z,7296
2018-06-02T10:43:04.413Z,7156
2018-06-02T10:44:04.881Z,7492
2018-06-02T10:45:05.968Z,7044
2018-06-02T10:46:05.657Z,5948
2018-06-02T10:47:05.845Z,5616
2018-06-02T10:48:06.251Z,5600
2018-06-02T10:49:07.231Z,6380
2018-06-02T10:50:06.188Z,5908
2018-06-02T10:51:07.014Z,6796
2018-06-02T10:52:07.298Z,7752
2018-06-02T10:53:07.341Z,7776
2018-06-02T10:54:06.801Z,6068
2018-06-02T10:55:07.321Z,4840
2018-06-02T10:56:07.732Z,3584
2018-06-02T10:57:07.581Z,3492
2018-06-02T10:58:07.670Z,3984
2018-06-02T10:59:07.664Z,4464
2018-06-02T11:00:21.941Z,3900
2018-06-02T11:01:07.761Z,3120
2018-06-02T11:02:07.750Z,3532
2018-06-02T11:03:09.638Z,4292
2018-06-02T11:04:08.896Z,4160
2018-06-02T11:05:08.754Z,4092
2018-06-02T11:06:08.707Z,4140
2018-06-02T11:07:08.728Z,4564
2018-06-02T11:08:08.515Z,5244
2018-06-02T11:09:08.721Z,5748
2018-06-02T11:10:09.817Z,5972
2018-06-02T11:11:09.630Z,6072
2018-06-02T11:12:09.265Z,6108
2018-06-02T11:13:08.995Z,5876
2018-06-02T11:14:09.730Z,5536
2018-06-02T11:15:10.257Z,5736
2018-06-02T11:16:10.097Z,6592
2018-06-02T11:17:10.307Z,7008
2018-06-02T11:18:10.358Z,7348
2018-06-02T11:19:10.117Z,7384
2018-06-02T11:20:10.693Z,7752
2018-06-02T11:21:10.530Z,7732
2018-06-02T11:22:10.937Z,7648
2018-06-02T11:23:11.759Z,7536
2018-06-02T11:24:10.984Z,6876
2018-06-02T11:25:11.666Z,6016
2018-06-02T11:26:11.848Z,5432
2018-06-02T11:27:11.842Z,5128
2018-06-02T11:28:11.960Z,5132
2018-06-02T11:29:11.890Z,5188
2018-06-02T11:30:12.472Z,5292
2018-06-02T11:31:12.502Z,5292
2018-06-02T11:32:12.841Z,5408
2018-06-02T11:33:12.502Z,5380
2018-06-02T11:34:12.736Z,5268
2018-06-02T11:35:13.250Z,5436
2018-06-02T11:36:14.001Z,5236
2018-06-02T11:37:13.434Z,5516
2018-06-02T11:38:14.250Z,5480
2018-06-02T11:39:15.028Z,5484
2018-06-02T11:40:14.048Z,5372
2018-06-02T11:41:14.495Z,5364
2018-06-02T11:42:14.887Z,5264
2018-06-02T11:43:15.611Z,4924
2018-06-02T11:44:15.334Z,5012
2018-06-02T11:45:16.409Z,4896
2018-06-02T11:46:16.201Z,4688
2018-06-02T11:47:16.888Z,4412
2018-06-02T11:48:18.842Z,4216
2018-06-02T11:49:18.353Z,4220
2018-06-02T11:50:16.865Z,3816
2018-06-02T11:51:17.105Z,3780
2018-06-02T11:52:17.567Z,4064
2018-06-02T11:53:18.593Z,3784
2018-06-02T11:54:17.515Z,3632
2018-06-02T11:55:17.957Z,3772
2018-06-02T11:56:17.852Z,3740
2018-06-02T11:57:18.090Z,3808
2018-06-02T11:58:17.281Z,4044
2018-06-02T11:59:17.470Z,4136
2018-06-02T12:00:31.652Z,4020
2018-06-02T12:01:32.532Z,4032
2018-06-02T12:02:32.379Z,3956
2018-06-02T12:03:31.175Z,3868
2018-06-02T12:04:31.723Z,4128
2018-06-02T12:05:32.732Z,3896
2018-06-02T12:06:32.050Z,3936
2018-06-02T12:07:31.626Z,4308
2018-06-02T12:08:31.491Z,4424
2018-06-02T12:09:31.139Z,4224
2018-06-02T12:10:32.420Z,4400
2018-06-02T12:11:31.968Z,4252
2018-06-02T12:12:32.062Z,5272
2018-06-02T12:13:32.397Z,4728
2018-06-02T12:14:32.096Z,4068
2018-06-02T12:15:31.988Z,3832
2018-06-02T12:16:32.177Z,3732
2018-06-02T12:17:32.515Z,3680
2018-06-02T12:18:32.853Z,3472
2018-06-02T12:19:34.000Z,3760
2018-06-02T12:20:32.205Z,3940
2018-06-02T12:21:33.057Z,3956
2018-06-02T12:22:32.419Z,3632
2018-06-02T12:23:34.223Z,3548
2018-06-02T12:24:33.127Z,3336
2018-06-02T12:25:34.027Z,3172
2018-06-02T12:26:32.716Z,2716
2018-06-02T12:27:34.002Z,2196
2018-06-02T12:28:33.339Z,1852
2018-06-02T12:29:33.541Z,2088
2018-06-02T12:30:34.621Z,2520
2018-06-02T12:31:34.051Z,2604
2018-06-02T12:32:34.154Z,2516
2018-06-02T12:33:34.886Z,2524
2018-06-02T12:34:33.990Z,2684
2018-06-02T12:35:34.870Z,2832
2018-06-02T12:36:34.990Z,2804
2018-06-02T12:37:35.198Z,2744
2018-06-02T12:38:36.038Z,2572
2018-06-02T12:39:35.889Z,2332
2018-06-02T12:40:36.419Z,2132
2018-06-02T12:41:35.568Z,2064
2018-06-02T12:42:36.188Z,1920
2018-06-02T12:43:35.536Z,2072
2018-06-02T12:44:35.195Z,2084
2018-06-02T12:45:35.046Z,1972
2018-06-02T12:46:34.764Z,1932
2018-06-02T12:47:35.988Z,1916
2018-06-02T12:48:36.238Z,1888
2018-06-02T12:49:35.216Z,1852
2018-06-02T12:50:35.499Z,1824
2018-06-02T12:51:36.077Z,1756
2018-06-02T12:52:35.396Z,1668
2018-06-02T12:53:35.211Z,1592
2018-06-02T12:54:35.455Z,1476
2018-06-02T12:55:35.736Z,1428
2018-06-02T12:56:35.764Z,1296
2018-06-02T12:57:35.601Z,1188
2018-06-02T12:58:35.736Z,1104
2018-06-02T12:59:36.383Z,1180
2018-06-02T13:00:36.578Z,1380
2018-06-02T13:01:37.117Z,1424
2018-06-02T13:02:37.072Z,1380
2018-06-02T13:03:37.414Z,1372
2018-06-02T13:04:37.184Z,1436
2018-06-02T13:05:37.245Z,1432
2018-06-02T13:06:37.048Z,1440
2018-06-02T13:07:37.273Z,1380
2018-06-02T13:08:37.129Z,1396
2018-06-02T13:09:37.482Z,1432
2018-06-02T13:10:37.975Z,1460
2018-06-02T13:11:37.799Z,1524
2018-06-02T13:12:38.073Z,1524
2018-06-02T13:13:38.791Z,1552
2018-06-02T13:14:39.317Z,1540
2018-06-02T13:15:38.210Z,1572
2018-06-02T13:16:38.683Z,1624
2018-06-02T13:17:38.359Z,1668
2018-06-02T13:18:38.190Z,1668
2018-06-02T13:19:38.342Z,1628
2018-06-02T13:20:38.647Z,1312
2018-06-02T13:21:38.762Z,1424
2018-06-02T13:22:38.753Z,1432
2018-06-02T13:23:40.797Z,1428
2018-06-02T13:24:40.122Z,1484
2018-06-02T13:25:40.019Z,1448
2018-06-02T13:26:39.550Z,1200
2018-06-02T13:27:40.012Z,1000
2018-06-02T13:28:39.373Z,984
2018-06-02T13:29:40.641Z,1100
2018-06-02T13:30:40.812Z,1184
2018-06-02T13:31:40.335Z,1100
2018-06-02T13:32:39.607Z,1096
2018-06-02T13:33:40.966Z,1136
2018-06-02T13:34:40.223Z,1040
2018-06-02T13:35:40.694Z,1100
2018-06-02T13:36:40.389Z,1056
2018-06-02T13:37:41.384Z,992
2018-06-02T13:38:40.967Z,976
2018-06-02T13:39:41.213Z,916